createdAt,value
2018-11-03T00:01:07.568Z,9.27
2018-11-03T00:06:09.900Z,9.83
2018-11-03T00:11:12.236Z,9.37
2018-11-03T00:16:14.557Z,8.20
2018-11-03T00:21:16.991Z,8.23
2018-11-03T00:26:19.290Z,8.40
2018-11-03T00:31:21.654Z,8.23
2018-11-03T00:36:23.956Z,8.67
2018-11-03T00:41:26.232Z,8.50
2018-11-03T00:46:28.657Z,10.00
2018-11-03T00:51:31.052Z,10.37
2018-11-03T00:56:33.428Z,9.60
2018-11-03T01:01:35.774Z,10.23
2018-11-03T01:06:38.071Z,10.27
2018-11-03T01:11:40.367Z,9.37
2018-11-03T01:16:42.675Z,9.43
2018-11-03T01:21:45.100Z,9.83
2018-11-03T01:26:47.379Z,10.20
2018-11-03T01:31:49.747Z,12.30
2018-11-03T01:36:52.064Z,12.27
2018-11-03T01:41:54.355Z,11.13
2018-11-03T01:46:56.704Z,10.93
2018-11-03T01:51:59.076Z,10.83
2018-11-03T01:57:01.324Z,10.77
2018-11-03T02:02:03.803Z,11.27
2018-11-03T02:07:06.369Z,11.17
2018-11-03T02:12:08.688Z,11.40
2018-11-03T02:17:10.996Z,10.67
2018-11-03T02:22:13.356Z,10.50
2018-11-03T02:27:15.692Z,11.30
2018-11-03T02:32:18.060Z,11.37
2018-11-03T02:37:20.359Z,11.93
2018-11-03T02:42:22.681Z,11.40
2018-11-03T02:47:25.061Z,10.70
2018-11-03T02:52:27.532Z,11.07
2018-11-03T02:57:29.884Z,11.67
2018-11-03T03:02:32.243Z,10.83
2018-11-03T03:07:34.563Z,11.37
2018-11-03T03:12:37.313Z,10.57
2018-11-03T03:17:40.015Z,11.23
2018-11-03T03:22:42.400Z,10.93
2018-11-03T03:27:44.744Z,10.93
2018-11-03T03:32:47.320Z,11.20
2018-11-03T03:37:49.784Z,10.77
2018-11-03T03:42:52.084Z,11.37
2018-11-03T03:47:54.383Z,11.87
2018-11-03T03:52:56.675Z,10.83
2018-11-03T03:57:58.980Z,11.53
2018-11-03T04:03:01.351Z,11.27
2018-11-03T04:08:03.671Z,12.40
2018-11-03T04:13:05.977Z,12.23
2018-11-03T04:18:09.063Z,11.73
2018-11-03T04:23:11.343Z,13.40
2018-11-03T04:28:13.628Z,12.80
2018-11-03T04:33:16.108Z,13.10
2018-11-03T04:38:18.385Z,13.23
2018-11-03T04:43:20.720Z,13.00
2018-11-03T04:48:23.033Z,13.87
2018-11-03T04:53:25.336Z,13.80
2018-11-03T04:58:27.617Z,13.53
2018-11-03T05:03:29.946Z,13.67
2018-11-03T05:08:32.219Z,13.20
2018-11-03T05:13:34.849Z,12.70
2018-11-03T05:18:37.234Z,12.93
2018-11-03T05:23:39.507Z,13.23
2018-11-03T05:28:41.836Z,13.57
2018-11-03T05:33:44.246Z,12.87
2018-11-03T05:38:46.603Z,12.53
2018-11-03T05:43:49.071Z,12.50
2018-11-03T05:48:52.820Z,11.97
2018-11-03T05:53:55.446Z,12.43
2018-11-03T05:58:57.896Z,12.97
2018-11-03T06:04:00.531Z,13.13
2018-11-03T06:09:04.087Z,13.17
2018-11-03T06:14:06.784Z,14.43
2018-11-03T06:19:09.076Z,13.93
2018-11-03T06:24:11.344Z,13.83
2018-11-03T06:29:13.624Z,14.43
2018-11-03T06:34:15.988Z,14.33
2018-11-03T06:39:18.362Z,13.80
2018-11-03T06:44:20.656Z,13.27
2018-11-03T06:49:23.851Z,13.67
2018-11-03T06:54:26.258Z,14.50
2018-11-03T06:59:28.574Z,14.10
2018-11-03T07:04:30.996Z,14.07
2018-11-03T07:09:33.403Z,13.57
2018-11-03T07:14:35.704Z,14.50
2018-11-03T07:19:38.102Z,13.77
2018-11-03T07:24:40.418Z,14.10
2018-11-03T07:29:42.817Z,13.20
2018-11-03T07:34:45.214Z,13.83
2018-11-03T07:39:47.513Z,14.63
2018-11-03T07:44:49.928Z,14.97
2018-11-03T07:49:52.321Z,15.37
2018-11-03T07:54:54.686Z,14.83
2018-11-03T07:59:56.967Z,16.17
2018-11-03T08:04:59.338Z,16.83
2018-11-03T08:10:01.627Z,14.70
2018-11-03T08:15:04.729Z,19.00
2018-11-03T08:20:08.474Z,19.73
2018-11-03T08:25:10.819Z,20.03
2018-11-03T08:30:13.863Z,20.13
2018-11-03T08:35:16.321Z,19.47
2018-11-03T08:40:18.630Z,19.03
2018-11-03T08:45:20.910Z,18.50
2018-11-03T08:50:23.198Z,18.87
2018-11-03T08:55:25.497Z,20.20
2018-11-03T09:00:27.861Z,20.57
2018-11-03T09:05:30.171Z,19.60
2018-11-03T09:10:32.454Z,20.33
2018-11-03T09:15:34.730Z,20.43
2018-11-03T09:20:37.026Z,20.97
2018-11-03T09:25:39.322Z,21.15
2018-11-03T09:30:41.685Z,20.60
2018-11-03T09:35:44.067Z,20.60
2018-11-03T09:40:46.352Z,21.07
2018-11-03T09:45:48.642Z,21.07
2018-11-03T09:50:50.952Z,20.30
2018-11-03T09:55:53.248Z,20.03
2018-11-03T10:00:55.536Z,20.15
2018-11-03T10:05:57.889Z,19.10
2018-11-03T10:11:00.180Z,19.37
2018-11-03T10:16:02.569Z,19.57
2018-11-03T10:21:05.186Z,18.75
2018-11-03T10:26:07.490Z,20.90
2018-11-03T10:31:09.800Z,19.43
2018-11-03T10:36:12.186Z,20.35
2018-11-03T10:41:14.474Z,20.05
2018-11-03T10:46:16.865Z,19.62
2018-11-03T10:51:19.137Z,20.50
2018-11-03T10:56:21.486Z,20.25
2018-11-03T11:01:29.386Z,19.98
2018-11-03T11:06:37.471Z,20.10
2018-11-03T11:11:45.834Z,17.83
2018-11-03T11:16:48.192Z,17.60
2018-11-03T11:21:50.446Z,18.40
2018-11-03T11:26:52.742Z,17.03
2018-11-03T11:31:55.075Z,17.35
2018-11-03T11:36:57.434Z,17.02
2018-11-03T11:41:59.778Z,16.93
2018-11-03T11:47:02.078Z,17.30
2018-11-03T11:52:04.451Z,17.17
2018-11-03T11:57:06.739Z,17.43
2018-11-03T12:02:09.259Z,18.37
2018-11-03T12:07:11.673Z,18.37
2018-11-03T12:12:13.977Z,19.12
2018-11-03T12:17:16.259Z,17.80
2018-11-03T12:22:18.601Z,18.57
2018-11-03T12:27:20.883Z,18.05
2018-11-03T12:32:23.260Z,17.30
2018-11-03T12:37:25.673Z,16.35
2018-11-03T12:42:28.310Z,16.85
2018-11-03T12:47:30.606Z,17.12
2018-11-03T12:52:32.922Z,16.45
2018-11-03T12:57:35.245Z,16.13
2018-11-03T13:02:38.004Z,16.42
2018-11-03T13:07:41.731Z,17.10
2018-11-03T13:12:44.954Z,16.82
2018-11-03T13:17:47.250Z,16.82
2018-11-03T13:22:49.611Z,16.93
2018-11-03T13:27:51.836Z,16.70
2018-11-03T13:32:54.155Z,17.12
2018-11-03T13:37:56.519Z,17.00
2018-11-03T13:42:58.882Z,16.40
2018-11-03T13:48:01.211Z,15.95
2018-11-03T13:53:03.534Z,16.85
2018-11-03T13:58:06.119Z,18.17
2018-11-03T14:03:08.422Z,17.90
2018-11-03T14:08:10.770Z,17.73
2018-11-03T14:18:27.962Z,18.90
2018-11-03T14:23:30.294Z,18.05
2018-11-03T14:28:32.570Z,18.05
2018-11-03T14:33:34.867Z,18.15
2018-11-03T14:38:37.204Z,20.48
2018-11-03T14:43:39.476Z,20.77
2018-11-03T14:48:41.931Z,20.40
2018-11-03T14:53:44.275Z,20.40
2018-11-03T14:58:46.569Z,19.77
2018-11-03T15:03:48.848Z,20.80
2018-11-03T15:08:51.194Z,21.20
2018-11-03T15:13:53.582Z,21.60
2018-11-03T15:18:55.798Z,22.53
2018-11-03T15:23:58.102Z,22.95
2018-11-03T15:29:00.398Z,22.60
2018-11-03T15:34:02.727Z,22.75
2018-11-03T15:39:05.771Z,23.30
2018-11-03T15:44:08.047Z,22.77
2018-11-03T15:49:10.377Z,24.15
2018-11-03T15:54:12.674Z,23.57
2018-11-03T15:59:14.974Z,22.40
2018-11-03T16:04:17.254Z,22.80
2018-11-03T16:09:19.585Z,22.58
2018-11-03T16:14:21.870Z,22.80
2018-11-03T16:19:24.312Z,23.37
2018-11-03T16:24:26.585Z,23.77
2018-11-03T16:29:28.873Z,24.43
2018-11-03T16:34:31.155Z,23.98
2018-11-03T16:39:33.452Z,24.37
2018-11-03T16:44:35.722Z,23.47
2018-11-03T16:49:38.005Z,22.67
2018-11-03T16:54:40.259Z,22.80
2018-11-03T16:59:42.640Z,21.60
2018-11-03T17:04:44.897Z,21.30
2018-11-03T17:09:47.205Z,19.80
2018-11-03T17:14:49.485Z,19.40
2018-11-03T17:19:51.784Z,18.70
2018-11-03T17:24:54.228Z,18.10
2018-11-03T17:29:56.520Z,16.80
2018-11-03T17:34:58.843Z,16.30
2018-11-03T17:40:01.176Z,14.73
2018-11-03T17:45:03.805Z,13.93
2018-11-03T17:50:07.602Z,13.00
2018-11-03T17:55:10.283Z,14.20
2018-11-03T18:00:16.267Z,13.03
2018-11-03T18:05:18.559Z,13.73
2018-11-03T18:10:20.895Z,13.17
2018-11-03T18:15:23.196Z,12.57
2018-11-03T18:20:25.463Z,13.13
2018-11-03T18:25:27.748Z,12.73
2018-11-03T18:30:30.027Z,13.43
2018-11-03T18:35:32.342Z,12.57
2018-11-03T18:40:34.650Z,12.97
2018-11-03T18:45:36.907Z,12.50
2018-11-03T18:50:39.159Z,13.07
2018-11-03T18:55:41.407Z,12.73
2018-11-03T19:00:43.679Z,12.27
2018-11-03T19:05:46.054Z,12.97
2018-11-03T19:10:48.374Z,12.37
2018-11-03T19:15:50.734Z,12.82
2018-11-03T19:20:53.010Z,12.70
2018-11-03T19:25:55.277Z,12.93
2018-11-03T19:30:57.605Z,12.53
2018-11-03T19:35:59.903Z,12.57
2018-11-03T19:41:02.255Z,13.10
2018-11-03T19:46:04.952Z,13.50
2018-11-03T19:51:07.246Z,13.30
2018-11-03T19:56:09.538Z,13.32
2018-11-03T20:01:11.848Z,12.73
2018-11-03T20:06:14.127Z,13.25
2018-11-03T20:11:16.463Z,14.87
2018-11-03T20:16:18.741Z,14.13
2018-11-03T20:21:21.011Z,14.07
2018-11-03T20:26:23.407Z,14.65
2018-11-03T20:31:25.641Z,14.63
2018-11-03T20:36:27.928Z,14.67
2018-11-03T20:41:30.323Z,15.03
2018-11-03T20:46:32.615Z,15.43
2018-11-03T20:51:34.915Z,15.95
2018-11-03T20:56:37.229Z,15.80
2018-11-03T21:01:39.572Z,16.33
2018-11-03T21:06:41.931Z,16.57
2018-11-03T21:11:44.337Z,16.83
2018-11-03T21:16:47.223Z,16.90
2018-11-03T21:21:49.555Z,16.40
2018-11-03T21:26:51.873Z,16.93
2018-11-03T21:31:54.227Z,17.73
2018-11-03T21:36:56.491Z,17.43
2018-11-03T21:42:00.643Z,18.15
2018-11-03T21:47:03.062Z,18.13
2018-11-03T21:52:06.006Z,18.57
2018-11-03T21:57:08.316Z,20.00
2018-11-03T22:02:10.602Z,19.87
2018-11-03T22:07:12.904Z,20.93
2018-11-03T22:12:15.255Z,20.87
2018-11-03T22:17:18.083Z,21.60
2018-11-03T22:22:20.383Z,21.40
2018-11-03T22:27:22.693Z,22.33
2018-11-03T22:32:25.886Z,22.43
2018-11-03T22:37:28.402Z,22.97
2018-11-03T22:42:30.759Z,23.33
2018-11-03T22:47:33.179Z,23.10
2018-11-03T22:52:35.568Z,24.40
2018-11-03T22:57:38.435Z,24.70
2018-11-03T23:02:41.447Z,24.90
2018-11-03T23:07:43.794Z,24.83
2018-11-03T23:12:46.227Z,26.00
2018-11-03T23:17:48.628Z,25.80
2018-11-03T23:22:51.105Z,26.50
2018-11-03T23:27:53.955Z,26.10
2018-11-03T23:32:56.403Z,26.37
2018-11-03T23:37:58.773Z,28.17
2018-11-03T23:43:01.214Z,28.87
2018-11-03T23:48:03.958Z,27.40
2018-11-03T23:53:06.290Z,28.80
2018-11-03T23:58:08.596Z,27.87
